sensor_id;sensor_type;location;lat;lon;timestamp;temperature;humidity
20432;DHT22;10375;49.136;10.366;2023-02-01T00:00:32;3.00;99.90
20432;DHT22;10375;49.136;10.366;2023-02-01T00:03:01;3.00;99.90
20432;DHT22;10375;49.136;10.366;2023-02-01T00:05:28;2.90;99.90
20432;DHT22;10375;49.136;10.366;2023-02-01T00:07:55;2.90;99.90
20432;DHT22;10375;49.136;10.366;2023-02-01T00:10:22;3.00;99.90
20432;DHT22;10375;49.136;10.366;2023-02-01T00:12:49;3.00;99.90
20432;DHT22;10375;49.136;10.366;2023-02-01T00:15:17;3.00;99.90
20432;DHT22;10375;49.136;10.366;2023-02-01T00:17:44;3.00;99.90
20432;DHT22;10375;49.136;10.366;2023-02-01T00:20:12;3.00;99.90
20432;DHT22;10375;49.136;10.366;2023-02-01T00:22:39;3.10;99.90
20432;DHT22;10375;49.136;10.366;2023-02-01T00:25:06;3.00;99.90
20432;DHT22;10375;49.136;10.366;2023-02-01T00:27:33;3.00;99.90
20432;DHT22;10375;49.136;10.366;2023-02-01T00:30:00;3.10;99.90
20432;DHT22;10375;49.136;10.366;2023-02-01T00:32:27;3.10;99.90
20432;DHT22;10375;49.136;10.366;2023-02-01T00:34:54;3.10;99.90
20432;DHT22;10375;49.136;10.366;2023-02-01T00:37:21;3.10;99.90
20432;DHT22;10375;49.136;10.366;2023-02-01T00:39:49;3.20;99.90
20432;DHT22;10375;49.136;10.366;2023-02-01T00:42:17;3.20;99.90
20432;DHT22;10375;49.136;10.366;2023-02-01T00:44:43;3.20;99.90
20432;DHT22;10375;49.136;10.366;2023-02-01T00:47:11;3.20;99.90
20432;DHT22;10375;49.136;10.366;2023-02-01T00:49:37;3.20;99.90
20432;DHT22;10375;49.136;10.366;2023-02-01T00:52:04;3.20;99.90
20432;DHT22;10375;49.136;10.366;2023-02-01T00:54:32;3.20;99.90
20432;DHT22;10375;49.136;10.366;2023-02-01T00:56:59;3.20;99.90
20432;DHT22;10375;49.136;10.366;2023-02-01T00:59:27;3.20;99.90
20432;DHT22;10375;49.136;10.366;2023-02-01T01:01:53;3.20;99.90
20432;DHT22;10375;49.136;10.366;2023-02-01T01:04:21;3.20;99.90
20432;DHT22;10375;49.136;10.366;2023-02-01T01:06:48;3.20;99.90
20432;DHT22;10375;49.136;10.366;2023-02-01T01:09:15;3.20;99.90
20432;DHT22;10375;49.136;10.366;2023-02-01T01:11:42;3.20;99.90
20432;DHT22;10375;49.136;10.366;2023-02-01T01:14:09;3.20;99.90
20432;DHT22;10375;49.136;10.366;2023-02-01T01:16:37;3.20;99.90
20432;DHT22;10375;49.136;10.366;2023-02-01T01:19:05;3.20;99.90
20432;DHT22;10375;49.136;10.366;2023-02-01T01:21:32;3.20;99.90
20432;DHT22;10375;49.136;10.366;2023-02-01T01:24:00;3.20;99.90
20432;DHT22;10375;49.136;10.366;2023-02-01T01:26:28;3.20;99.90
20432;DHT22;10375;49.136;10.366;2023-02-01T01:28:57;3.20;99.90
20432;DHT22;10375;49.136;10.366;2023-02-01T01:31:24;3.10;99.90
20432;DHT22;10375;49.136;10.366;2023-02-01T01:33:54;3.10;99.90
20432;DHT22;10375;49.136;10.366;2023-02-01T01:36:22;3.10;99.90
20432;DHT22;10375;49.136;10.366;2023-02-01T01:38:49;3.10;99.90
20432;DHT22;10375;49.136;10.366;2023-02-01T01:41:28;3.10;99.90
20432;DHT22;10375;49.136;10.366;2023-02-01T01:44:03;3.10;99.90
20432;DHT22;10375;49.136;10.366;2023-02-01T01:46:33;3.10;99.90
20432;DHT22;10375;49.136;10.366;2023-02-01T01:49:36;3.10;99.90
20432;DHT22;10375;49.136;10.366;2023-02-01T01:52:05;3.20;99.90
20432;DHT22;10375;49.136;10.366;2023-02-01T01:54:37;3.10;99.90
20432;DHT22;10375;49.136;10.366;2023-02-01T01:57:13;3.20;99.90
20432;DHT22;10375;49.136;10.366;2023-02-01T01:59:45;3.20;99.90
20432;DHT22;10375;49.136;10.366;2023-02-01T02:02:13;3.20;99.90
20432;DHT22;10375;49.136;10.366;2023-02-01T02:04:40;3.20;99.90
20432;DHT22;10375;49.136;10.366;2023-02-01T02:07:11;3.20;99.90
20432;DHT22;10375;49.136;10.366;2023-02-01T02:09:40;3.20;99.90
20432;DHT22;10375;49.136;10.366;2023-02-01T02:12:20;3.20;99.90
20432;DHT22;10375;49.136;10.366;2023-02-01T02:14:47;3.20;99.90
20432;DHT22;10375;49.136;10.366;2023-02-01T02:34:24;3.20;99.90
20432;DHT22;10375;49.136;10.366;2023-02-01T02:39:58;3.20;99.90
20432;DHT22;10375;49.136;10.366;2023-02-01T02:45:41;3.30;99.90
20432;DHT22;10375;49.136;10.366;2023-02-01T02:48:46;3.20;99.90
20432;DHT22;10375;49.136;10.366;2023-02-01T02:54:40;3.20;99.90
20432;DHT22;10375;49.136;10.366;2023-02-01T02:57:51;3.20;99.90
20432;DHT22;10375;49.136;10.366;2023-02-01T03:00:37;3.20;99.90
20432;DHT22;10375;49.136;10.366;2023-02-01T03:03:22;3.20;99.90
20432;DHT22;10375;49.136;10.366;2023-02-01T03:06:13;3.30;99.90
20432;DHT22;10375;49.136;10.366;2023-02-01T03:08:42;3.20;99.90
20432;DHT22;10375;49.136;10.366;2023-02-01T03:11:14;3.30;99.90
20432;DHT22;10375;49.136;10.366;2023-02-01T03:14:00;3.20;99.90
20432;DHT22;10375;49.136;10.366;2023-02-01T03:16:33;3.20;99.90
20432;DHT22;10375;49.136;10.366;2023-02-01T03:19:11;3.20;99.90
20432;DHT22;10375;49.136;10.366;2023-02-01T03:21:41;3.20;99.90
20432;DHT22;10375;49.136;10.366;2023-02-01T03:27:18;3.30;99.90
20432;DHT22;10375;49.136;10.366;2023-02-01T03:32:20;3.20;99.90
20432;DHT22;10375;49.136;10.366;2023-02-01T03:34:48;3.30;99.90
20432;DHT22;10375;49.136;10.366;2023-02-01T03:37:28;3.30;99.90
20432;DHT22;10375;49.136;10.366;2023-02-01T03:39:59;3.30;99.90
20432;DHT22;10375;49.136;10.366;2023-02-01T03:42:40;3.20;99.90
20432;DHT22;10375;49.136;10.366;2023-02-01T03:45:25;3.30;99.90
20432;DHT22;10375;49.136;10.366;2023-02-01T03:47:56;3.30;99.90
20432;DHT22;10375;49.136;10.366;2023-02-01T03:50:24;3.30;99.90
20432;DHT22;10375;49.136;10.366;2023-02-01T03:53:02;3.40;99.90
20432;DHT22;10375;49.136;10.366;2023-02-01T03:55:38;3.30;99.90
20432;DHT22;10375;49.136;10.366;2023-02-01T04:00:35;3.30;99.90
20432;DHT22;10375;49.136;10.366;2023-02-01T04:03:04;3.30;99.90
20432;DHT22;10375;49.136;10.366;2023-02-01T04:05:31;3.30;99.90
20432;DHT22;10375;49.136;10.366;2023-02-01T04:07:58;3.30;99.90
20432;DHT22;10375;49.136;10.366;2023-02-01T04:10:26;3.40;99.90
20432;DHT22;10375;49.136;10.366;2023-02-01T04:12:53;3.40;99.90
20432;DHT22;10375;49.136;10.366;2023-02-01T04:15:20;3.40;99.90
20432;DHT22;10375;49.136;10.366;2023-02-01T04:17:47;3.40;99.90
20432;DHT22;10375;49.136;10.366;2023-02-01T04:20:15;3.40;99.90
20432;DHT22;10375;49.136;10.366;2023-02-01T04:22:43;3.40;99.90
20432;DHT22;10375;49.136;10.366;2023-02-01T04:25:10;3.40;99.90
20432;DHT22;10375;49.136;10.366;2023-02-01T04:27:37;3.40;99.90
20432;DHT22;10375;49.136;10.366;2023-02-01T04:30:05;3.40;99.90
20432;DHT22;10375;49.136;10.366;2023-02-01T04:32:37;3.50;99.90
20432;DHT22;10375;49.136;10.366;2023-02-01T04:35:04;3.50;99.90
20432;DHT22;10375;49.136;10.366;2023-02-01T04:37:32;3.50;99.90
20432;DHT22;10375;49.136;10.366;2023-02-01T04:39:59;3.50;99.90
20432;DHT22;10375;49.136;10.366;2023-02-01T04:42:26;3.50;99.90
20432;DHT22;10375;49.136;10.366;2023-02-01T04:44:53;3.50;99.90
20432;DHT22;10375;49.136;10.366;2023-02-01T04:47:20;3.50;99.90
20432;DHT22;10375;49.136;10.366;2023-02-01T04:49:47;3.50;99.90
20432;DHT22;10375;49.136;10.366;2023-02-01T04:52:14;3.60;99.90
20432;DHT22;10375;49.136;10.366;2023-02-01T04:54:41;3.60;99.90
20432;DHT22;10375;49.136;10.366;2023-02-01T04:57:08;3.60;99.90
20432;DHT22;10375;49.136;10.366;2023-02-01T04:59:35;3.60;99.90
20432;DHT22;10375;49.136;10.366;2023-02-01T05:02:03;3.60;99.90
20432;DHT22;10375;49.136;10.366;2023-02-01T05:04:30;3.60;99.90
20432;DHT22;10375;49.136;10.366;2023-02-01T05:06:57;3.60;99.90
20432;DHT22;10375;49.136;10.366;2023-02-01T05:09:24;3.60;99.90
20432;DHT22;10375;49.136;10.366;2023-02-01T05:11:51;3.60;99.90
20432;DHT22;10375;49.136;10.366;2023-02-01T05:15:00;3.60;99.90
20432;DHT22;10375;49.136;10.366;2023-02-01T05:17:28;3.60;99.90
20432;DHT22;10375;49.136;10.366;2023-02-01T05:19:55;3.60;99.90
20432;DHT22;10375;49.136;10.366;2023-02-01T05:22:22;3.60;99.90
20432;DHT22;10375;49.136;10.366;2023-02-01T05:24:49;3.60;99.90
20432;DHT22;10375;49.136;10.366;2023-02-01T05:27:16;3.60;99.90
20432;DHT22;10375;49.136;10.366;2023-02-01T05:29:43;3.60;99.90
20432;DHT22;10375;49.136;10.366;2023-02-01T05:32:10;3.60;99.90
20432;DHT22;10375;49.136;10.366;2023-02-01T05:34:48;3.60;99.90
20432;DHT22;10375;49.136;10.366;2023-02-01T05:37:15;3.60;99.90
20432;DHT22;10375;49.136;10.366;2023-02-01T05:39:42;3.60;99.90
20432;DHT22;10375;49.136;10.366;2023-02-01T05:42:09;3.60;99.90
20432;DHT22;10375;49.136;10.366;2023-02-01T05:44:36;3.60;99.90
20432;DHT22;10375;49.136;10.366;2023-02-01T05:47:03;3.60;99.90
20432;DHT22;10375;49.136;10.366;2023-02-01T05:49:31;3.60;99.90
20432;DHT22;10375;49.136;10.366;2023-02-01T05:51:58;3.60;99.90
20432;DHT22;10375;49.136;10.366;2023-02-01T05:54:26;3.60;99.90
20432;DHT22;10375;49.136;10.366;2023-02-01T05:56:53;3.60;99.90
20432;DHT22;10375;49.136;10.366;2023-02-01T05:59:20;3.60;99.90
20432;DHT22;10375;49.136;10.366;2023-02-01T06:01:47;3.60;99.90
20432;DHT22;10375;49.136;10.366;2023-02-01T06:04:14;3.60;99.90
20432;DHT22;10375;49.136;10.366;2023-02-01T06:06:41;3.60;99.90
20432;DHT22;10375;49.136;10.366;2023-02-01T06:09:09;3.60;99.90
20432;DHT22;10375;49.136;10.366;2023-02-01T06:11:36;3.60;99.90
20432;DHT22;10375;49.136;10.366;2023-02-01T06:14:03;3.60;99.90
20432;DHT22;10375;49.136;10.366;2023-02-01T06:16:30;3.60;99.90
20432;DHT22;10375;49.136;10.366;2023-02-01T06:18:58;3.60;99.90
20432;DHT22;10375;49.136;10.366;2023-02-01T06:21:25;3.60;99.90
20432;DHT22;10375;49.136;10.366;2023-02-01T06:23:53;3.60;99.90
20432;DHT22;10375;49.136;10.366;2023-02-01T06:26:21;3.60;99.90
20432;DHT22;10375;49.136;10.366;2023-02-01T06:28:48;3.60;99.90
20432;DHT22;10375;49.136;10.366;2023-02-01T06:31:15;3.60;99.90
20432;DHT22;10375;49.136;10.366;2023-02-01T06:33:43;3.60;99.90
20432;DHT22;10375;49.136;10.366;2023-02-01T06:36:11;3.60;99.90
20432;DHT22;10375;49.136;10.366;2023-02-01T06:38:42;3.60;99.90
20432;DHT22;10375;49.136;10.366;2023-02-01T06:41:09;3.60;99.90
20432;DHT22;10375;49.136;10.366;2023-02-01T06:43:37;3.60;99.90
20432;DHT22;10375;49.136;10.366;2023-02-01T06:46:07;3.60;99.90
20432;DHT22;10375;49.136;10.366;2023-02-01T06:48:34;3.70;99.90
20432;DHT22;10375;49.136;10.366;2023-02-01T06:51:01;3.70;99.90
20432;DHT22;10375;49.136;10.366;2023-02-01T06:53:29;3.70;99.90
20432;DHT22;10375;49.136;10.366;2023-02-01T06:55:58;3.70;99.90
20432;DHT22;10375;49.136;10.366;2023-02-01T06:58:30;3.70;99.90
20432;DHT22;10375;49.136;10.366;2023-02-01T07:00:58;3.70;99.90
20432;DHT22;10375;49.136;10.366;2023-02-01T07:03:25;3.70;99.90
20432;DHT22;10375;49.136;10.366;2023-02-01T07:05:57;3.70;99.90
20432;DHT22;10375;49.136;10.366;2023-02-01T07:08:27;3.70;99.90
20432;DHT22;10375;49.136;10.366;2023-02-01T07:10:55;3.80;99.90
20432;DHT22;10375;49.136;10.366;2023-02-01T07:13:22;3.80;99.90
20432;DHT22;10375;49.136;10.366;2023-02-01T07:15:49;3.80;99.90
20432;DHT22;10375;49.136;10.366;2023-02-01T07:18:16;3.80;99.90
20432;DHT22;10375;49.136;10.366;2023-02-01T07:20:43;3.80;99.90
20432;DHT22;10375;49.136;10.366;2023-02-01T07:23:10;3.70;99.90
20432;DHT22;10375;49.136;10.366;2023-02-01T07:25:37;3.70;99.90
20432;DHT22;10375;49.136;10.366;2023-02-01T07:28:04;3.80;99.90
20432;DHT22;10375;49.136;10.366;2023-02-01T07:30:31;3.80;99.90
20432;DHT22;10375;49.136;10.366;2023-02-01T07:32:58;3.80;99.90
20432;DHT22;10375;49.136;10.366;2023-02-01T07:35:28;3.80;99.90
20432;DHT22;10375;49.136;10.366;2023-02-01T07:37:57;3.90;99.90
20432;DHT22;10375;49.136;10.366;2023-02-01T07:40:24;3.90;99.90
20432;DHT22;10375;49.136;10.366;2023-02-01T07:42:55;3.90;99.90
20432;DHT22;10375;49.136;10.366;2023-02-01T07:45:23;3.80;99.90
20432;DHT22;10375;49.136;10.366;2023-02-01T07:47:51;3.80;99.90
20432;DHT22;10375;49.136;10.366;2023-02-01T07:50:19;3.80;99.90
20432;DHT22;10375;49.136;10.366;2023-02-01T07:52:48;3.80;99.90
20432;DHT22;10375;49.136;10.366;2023-02-01T07:55:15;3.90;99.90
20432;DHT22;10375;49.136;10.366;2023-02-01T07:57:42;3.90;99.90
20432;DHT22;10375;49.136;10.366;2023-02-01T08:00:09;3.90;99.90
20432;DHT22;10375;49.136;10.366;2023-02-01T08:02:58;4.00;99.90
20432;DHT22;10375;49.136;10.366;2023-02-01T08:05:25;4.10;99.90
20432;DHT22;10375;49.136;10.366;2023-02-01T08:07:52;4.10;99.90
20432;DHT22;10375;49.136;10.366;2023-02-01T08:10:19;4.10;99.90
20432;DHT22;10375;49.136;10.366;2023-02-01T08:12:47;4.10;99.90
20432;DHT22;10375;49.136;10.366;2023-02-01T08:15:15;4.20;99.90
20432;DHT22;10375;49.136;10.366;2023-02-01T08:17:47;4.20;99.90
20432;DHT22;10375;49.136;10.366;2023-02-01T08:20:15;4.20;99.90
20432;DHT22;10375;49.136;10.366;2023-02-01T08:22:42;4.20;99.90
20432;DHT22;10375;49.136;10.366;2023-02-01T08:25:10;4.10;99.90
20432;DHT22;10375;49.136;10.366;2023-02-01T08:27:37;4.10;99.90
20432;DHT22;10375;49.136;10.366;2023-02-01T08:30:05;4.10;99.90
20432;DHT22;10375;49.136;10.366;2023-02-01T08:32:34;4.20;99.90
20432;DHT22;10375;49.136;10.366;2023-02-01T08:35:03;4.20;99.90
20432;DHT22;10375;49.136;10.366;2023-02-01T08:37:30;4.20;99.90
20432;DHT22;10375;49.136;10.366;2023-02-01T08:39:58;4.20;99.90
20432;DHT22;10375;49.136;10.366;2023-02-01T08:42:25;4.20;99.90
20432;DHT22;10375;49.136;10.366;2023-02-01T08:45:11;4.20;99.90
20432;DHT22;10375;49.136;10.366;2023-02-01T08:47:38;4.20;99.90
20432;DHT22;10375;49.136;10.366;2023-02-01T08:50:06;4.30;99.90
20432;DHT22;10375;49.136;10.366;2023-02-01T08:52:33;4.30;99.90
20432;DHT22;10375;49.136;10.366;2023-02-01T08:55:03;4.40;99.90
20432;DHT22;10375;49.136;10.366;2023-02-01T08:57:30;4.40;99.90
20432;DHT22;10375;49.136;10.366;2023-02-01T08:59:57;4.40;99.90
20432;DHT22;10375;49.136;10.366;2023-02-01T09:02:24;4.50;99.90
20432;DHT22;10375;49.136;10.366;2023-02-01T09:04:52;4.50;99.90
20432;DHT22;10375;49.136;10.366;2023-02-01T09:07:19;4.60;99.90
20432;DHT22;10375;49.136;10.366;2023-02-01T09:09:46;4.60;99.90
20432;DHT22;10375;49.136;10.366;2023-02-01T09:12:13;4.60;99.90
20432;DHT22;10375;49.136;10.366;2023-02-01T09:14:40;4.60;99.90
20432;DHT22;10375;49.136;10.366;2023-02-01T09:17:08;4.70;99.90
20432;DHT22;10375;49.136;10.366;2023-02-01T09:19:35;4.80;99.90
20432;DHT22;10375;49.136;10.366;2023-02-01T09:22:02;4.80;99.90
20432;DHT22;10375;49.136;10.366;2023-02-01T09:24:29;4.80;99.90
20432;DHT22;10375;49.136;10.366;2023-02-01T09:26:56;4.70;99.90
20432;DHT22;10375;49.136;10.366;2023-02-01T09:29:23;4.60;99.90
20432;DHT22;10375;49.136;10.366;2023-02-01T09:31:50;4.60;99.90
20432;DHT22;10375;49.136;10.366;2023-02-01T09:34:29;4.50;99.90
20432;DHT22;10375;49.136;10.366;2023-02-01T09:36:57;4.50;99.90
20432;DHT22;10375;49.136;10.366;2023-02-01T09:39:24;4.40;99.90
20432;DHT22;10375;49.136;10.366;2023-02-01T09:44:56;4.40;99.90
20432;DHT22;10375;49.136;10.366;2023-02-01T09:47:26;4.40;99.90
20432;DHT22;10375;49.136;10.366;2023-02-01T09:50:13;4.50;99.90
20432;DHT22;10375;49.136;10.366;2023-02-01T09:55:46;4.70;99.90
20432;DHT22;10375;49.136;10.366;2023-02-01T09:58:25;4.80;99.90
20432;DHT22;10375;49.136;10.366;2023-02-01T10:00:58;4.80;99.90
20432;DHT22;10375;49.136;10.366;2023-02-01T10:03:30;4.90;99.90
20432;DHT22;10375;49.136;10.366;2023-02-01T10:23:16;4.80;99.90
20432;DHT22;10375;49.136;10.366;2023-02-01T10:26:19;4.70;99.90
20432;DHT22;10375;49.136;10.366;2023-02-01T10:29:03;4.80;99.90
20432;DHT22;10375;49.136;10.366;2023-02-01T10:31:36;4.90;99.90
20432;DHT22;10375;49.136;10.366;2023-02-01T10:36:57;5.00;99.90
20432;DHT22;10375;49.136;10.366;2023-02-01T10:39:28;5.00;99.90
20432;DHT22;10375;49.136;10.366;2023-02-01T10:41:56;5.20;99.90
20432;DHT22;10375;49.136;10.366;2023-02-01T10:44:30;5.20;99.90
20432;DHT22;10375;49.136;10.366;2023-02-01T10:46:57;5.20;99.90
20432;DHT22;10375;49.136;10.366;2023-02-01T10:49:33;5.20;99.90
20432;DHT22;10375;49.136;10.366;2023-02-01T10:52:29;5.10;99.90
20432;DHT22;10375;49.136;10.366;2023-02-01T10:55:27;5.00;99.90
20432;DHT22;10375;49.136;10.366;2023-02-01T10:58:03;5.00;99.90
20432;DHT22;10375;49.136;10.366;2023-02-01T11:06:24;5.00;99.90
20432;DHT22;10375;49.136;10.366;2023-02-01T11:08:56;5.00;99.90
20432;DHT22;10375;49.136;10.366;2023-02-01T11:11:24;5.10;99.90
20432;DHT22;10375;49.136;10.366;2023-02-01T11:14:00;5.00;99.90
20432;DHT22;10375;49.136;10.366;2023-02-01T11:16:39;5.10;99.90
20432;DHT22;10375;49.136;10.366;2023-02-01T11:19:06;5.10;99.90
20432;DHT22;10375;49.136;10.366;2023-02-01T11:21:34;5.10;99.90
20432;DHT22;10375;49.136;10.366;2023-02-01T11:24:03;5.10;99.90
20432;DHT22;10375;49.136;10.366;2023-02-01T11:26:31;5.20;99.90
20432;DHT22;10375;49.136;10.366;2023-02-01T11:29:03;5.20;99.90
20432;DHT22;10375;49.136;10.366;2023-02-01T11:31:33;5.30;99.90
20432;DHT22;10375;49.136;10.366;2023-02-01T11:34:13;5.30;99.90
20432;DHT22;10375;49.136;10.366;2023-02-01T11:36:41;5.20;99.90
20432;DHT22;10375;49.136;10.366;2023-02-01T11:42:11;5.30;99.90
20432;DHT22;10375;49.136;10.366;2023-02-01T11:44:44;5.50;99.90
20432;DHT22;10375;49.136;10.366;2023-02-01T11:47:24;5.60;99.90
20432;DHT22;10375;49.136;10.366;2023-02-01T11:49:58;5.60;99.90
20432;DHT22;10375;49.136;10.366;2023-02-01T12:17:51;5.00;99.90
20432;DHT22;10375;49.136;10.366;2023-02-01T12:20:33;5.00;99.90
20432;DHT22;10375;49.136;10.366;2023-02-01T12:31:18;5.00;99.90
20432;DHT22;10375;49.136;10.366;2023-02-01T12:34:14;5.00;99.90
20432;DHT22;10375;49.136;10.366;2023-02-01T12:37:04;4.90;99.90
20432;DHT22;10375;49.136;10.366;2023-02-01T12:39:41;4.80;99.90
20432;DHT22;10375;49.136;10.366;2023-02-01T12:47:57;4.60;99.90
20432;DHT22;10375;49.136;10.366;2023-02-01T12:50:43;4.70;99.90
20432;DHT22;10375;49.136;10.366;2023-02-01T12:56:03;4.70;99.90
20432;DHT22;10375;49.136;10.366;2023-02-01T13:06:42;5.10;99.90
20432;DHT22;10375;49.136;10.366;2023-02-01T13:09:26;5.30;99.90
20432;DHT22;10375;49.136;10.366;2023-02-01T13:11:57;5.50;99.90
20432;DHT22;10375;49.136;10.366;2023-02-01T13:14:29;5.50;99.90
20432;DHT22;10375;49.136;10.366;2023-02-01T13:17:19;5.30;99.90
20432;DHT22;10375;49.136;10.366;2023-02-01T13:19:56;5.00;99.90
20432;DHT22;10375;49.136;10.366;2023-02-01T13:22:29;4.80;99.90
20432;DHT22;10375;49.136;10.366;2023-02-01T13:27:39;4.60;99.90
20432;DHT22;10375;49.136;10.366;2023-02-01T13:30:29;4.50;99.90
20432;DHT22;10375;49.136;10.366;2023-02-01T13:33:28;4.50;99.90
20432;DHT22;10375;49.136;10.366;2023-02-01T13:42:00;4.50;99.90
20432;DHT22;10375;49.136;10.366;2023-02-01T13:44:37;4.50;99.90
20432;DHT22;10375;49.136;10.366;2023-02-01T13:47:23;4.50;99.90
20432;DHT22;10375;49.136;10.366;2023-02-01T13:49:52;4.40;99.90
20432;DHT22;10375;49.136;10.366;2023-02-01T13:52:38;4.40;99.90
20432;DHT22;10375;49.136;10.366;2023-02-01T13:57:50;4.40;99.90
20432;DHT22;10375;49.136;10.366;2023-02-01T14:00:25;4.50;99.90
20432;DHT22;10375;49.136;10.366;2023-02-01T14:03:02;4.50;99.90
20432;DHT22;10375;49.136;10.366;2023-02-01T14:13:32;4.50;99.90
20432;DHT22;10375;49.136;10.366;2023-02-01T14:26:25;4.30;99.90
20432;DHT22;10375;49.136;10.366;2023-02-01T14:31:59;4.40;99.90
20432;DHT22;10375;49.136;10.366;2023-02-01T14:50:47;4.40;99.90
20432;DHT22;10375;49.136;10.366;2023-02-01T14:53:21;4.50;99.90
20432;DHT22;10375;49.136;10.366;2023-02-01T14:56:08;4.50;99.90
20432;DHT22;10375;49.136;10.366;2023-02-01T14:58:59;4.60;99.90
20432;DHT22;10375;49.136;10.366;2023-02-01T15:01:35;4.50;99.90
20432;DHT22;10375;49.136;10.366;2023-02-01T15:04:12;4.50;99.90
20432;DHT22;10375;49.136;10.366;2023-02-01T15:06:54;4.40;99.90
20432;DHT22;10375;49.136;10.366;2023-02-01T15:09:31;4.40;99.90
20432;DHT22;10375;49.136;10.366;2023-02-01T15:15:02;4.40;99.90
20432;DHT22;10375;49.136;10.366;2023-02-01T15:17:31;4.40;99.90
20432;DHT22;10375;49.136;10.366;2023-02-01T15:20:16;4.50;99.90
20432;DHT22;10375;49.136;10.366;2023-02-01T15:22:59;4.50;99.90
20432;DHT22;10375;49.136;10.366;2023-02-01T15:25:29;4.50;99.90
20432;DHT22;10375;49.136;10.366;2023-02-01T15:27:57;4.40;99.90
20432;DHT22;10375;49.136;10.366;2023-02-01T15:30:27;4.50;99.90
20432;DHT22;10375;49.136;10.366;2023-02-01T15:33:25;4.50;99.90
20432;DHT22;10375;49.136;10.366;2023-02-01T15:38:41;4.40;99.90
20432;DHT22;10375;49.136;10.366;2023-02-01T15:41:20;4.40;99.90
20432;DHT22;10375;49.136;10.366;2023-02-01T15:46:30;4.40;99.90
20432;DHT22;10375;49.136;10.366;2023-02-01T15:48:58;4.30;99.90
20432;DHT22;10375;49.136;10.366;2023-02-01T15:51:28;4.30;99.90
20432;DHT22;10375;49.136;10.366;2023-02-01T15:54:00;4.30;99.90
20432;DHT22;10375;49.136;10.366;2023-02-01T15:56:34;4.30;99.90
20432;DHT22;10375;49.136;10.366;2023-02-01T15:59:05;4.30;99.90
20432;DHT22;10375;49.136;10.366;2023-02-01T16:01:37;4.30;99.90
20432;DHT22;10375;49.136;10.366;2023-02-01T16:06:49;4.30;99.90
20432;DHT22;10375;49.136;10.366;2023-02-01T16:09:19;4.30;99.90
20432;DHT22;10375;49.136;10.366;2023-02-01T16:14:16;4.30;99.90
20432;DHT22;10375;49.136;10.366;2023-02-01T16:16:43;4.30;99.90
20432;DHT22;10375;49.136;10.366;2023-02-01T16:19:10;4.30;99.90
20432;DHT22;10375;49.136;10.366;2023-02-01T16:21:37;4.20;99.90
20432;DHT22;10375;49.136;10.366;2023-02-01T16:24:05;4.30;99.90
20432;DHT22;10375;49.136;10.366;2023-02-01T16:26:34;4.20;99.90
20432;DHT22;10375;49.136;10.366;2023-02-01T16:29:02;4.30;99.90
20432;DHT22;10375;49.136;10.366;2023-02-01T16:31:36;4.20;99.90
20432;DHT22;10375;49.136;10.366;2023-02-01T16:34:04;4.30;99.90
20432;DHT22;10375;49.136;10.366;2023-02-01T16:36:33;4.30;99.90
20432;DHT22;10375;49.136;10.366;2023-02-01T16:39:01;4.30;99.90
20432;DHT22;10375;49.136;10.366;2023-02-01T16:41:29;4.20;99.90
20432;DHT22;10375;49.136;10.366;2023-02-01T16:43:56;4.20;99.90
20432;DHT22;10375;49.136;10.366;2023-02-01T16:46:26;4.20;99.90
20432;DHT22;10375;49.136;10.366;2023-02-01T16:48:58;4.20;99.90
20432;DHT22;10375;49.136;10.366;2023-02-01T16:51:30;4.10;99.90
20432;DHT22;10375;49.136;10.366;2023-02-01T16:54:00;4.10;99.90
20432;DHT22;10375;49.136;10.366;2023-02-01T16:56:32;4.20;99.90
20432;DHT22;10375;49.136;10.366;2023-02-01T16:59:00;4.20;99.90
20432;DHT22;10375;49.136;10.366;2023-02-01T17:01:28;4.30;99.90
20432;DHT22;10375;49.136;10.366;2023-02-01T17:03:55;4.20;99.90
20432;DHT22;10375;49.136;10.366;2023-02-01T17:06:25;4.20;99.90
20432;DHT22;10375;49.136;10.366;2023-02-01T17:08:55;4.30;99.90
20432;DHT22;10375;49.136;10.366;2023-02-01T17:11:25;4.20;99.90
20432;DHT22;10375;49.136;10.366;2023-02-01T17:13:57;4.20;99.90
20432;DHT22;10375;49.136;10.366;2023-02-01T17:16:34;4.20;99.90
20432;DHT22;10375;49.136;10.366;2023-02-01T17:19:08;4.10;99.90
20432;DHT22;10375;49.136;10.366;2023-02-01T17:21:44;4.20;99.90
20432;DHT22;10375;49.136;10.366;2023-02-01T17:24:20;4.20;99.90
20432;DHT22;10375;49.136;10.366;2023-02-01T17:27:08;4.20;99.90
20432;DHT22;10375;49.136;10.366;2023-02-01T17:29:35;4.20;99.90
20432;DHT22;10375;49.136;10.366;2023-02-01T17:32:03;4.10;99.90
20432;DHT22;10375;49.136;10.366;2023-02-01T17:34:32;4.20;99.90
20432;DHT22;10375;49.136;10.366;2023-02-01T17:36:59;4.20;99.90
20432;DHT22;10375;49.136;10.366;2023-02-01T17:39:26;4.20;99.90
20432;DHT22;10375;49.136;10.366;2023-02-01T17:42:12;4.20;99.90
20432;DHT22;10375;49.136;10.366;2023-02-01T17:44:39;4.20;99.90
20432;DHT22;10375;49.136;10.366;2023-02-01T17:47:09;4.30;99.90
20432;DHT22;10375;49.136;10.366;2023-02-01T17:49:37;4.20;99.90
20432;DHT22;10375;49.136;10.366;2023-02-01T17:52:17;4.20;99.90
20432;DHT22;10375;49.136;10.366;2023-02-01T17:54:48;4.20;99.90
20432;DHT22;10375;49.136;10.366;2023-02-01T17:57:16;4.20;99.90
20432;DHT22;10375;49.136;10.366;2023-02-01T17:59:43;4.30;99.90
20432;DHT22;10375;49.136;10.366;2023-02-01T18:02:22;4.30;99.90
20432;DHT22;10375;49.136;10.366;2023-02-01T18:04:50;4.30;99.90
20432;DHT22;10375;49.136;10.366;2023-02-01T18:07:17;4.40;99.90
20432;DHT22;10375;49.136;10.366;2023-02-01T18:09:45;4.30;99.90
20432;DHT22;10375;49.136;10.366;2023-02-01T18:12:20;4.30;99.90
20432;DHT22;10375;49.136;10.366;2023-02-01T18:14:49;4.40;99.90
20432;DHT22;10375;49.136;10.366;2023-02-01T18:17:16;4.30;99.90
20432;DHT22;10375;49.136;10.366;2023-02-01T18:19:45;4.30;99.90
20432;DHT22;10375;49.136;10.366;2023-02-01T18:22:16;4.30;99.90
20432;DHT22;10375;49.136;10.366;2023-02-01T18:24:44;4.30;99.90
20432;DHT22;10375;49.136;10.366;2023-02-01T18:27:11;4.30;99.90
20432;DHT22;10375;49.136;10.366;2023-02-01T18:29:38;4.40;99.90
20432;DHT22;10375;49.136;10.366;2023-02-01T18:32:07;4.30;99.90
20432;DHT22;10375;49.136;10.366;2023-02-01T18:34:34;4.30;99.90
20432;DHT22;10375;49.136;10.366;2023-02-01T18:37:01;4.30;99.90
20432;DHT22;10375;49.136;10.366;2023-02-01T18:39:28;4.40;99.90
20432;DHT22;10375;49.136;10.366;2023-02-01T18:41:56;4.40;99.90
20432;DHT22;10375;49.136;10.366;2023-02-01T18:44:23;4.40;99.90
20432;DHT22;10375;49.136;10.366;2023-02-01T18:46:51;4.40;99.90
20432;DHT22;10375;49.136;10.366;2023-02-01T18:49:20;4.40;99.90
20432;DHT22;10375;49.136;10.366;2023-02-01T18:51:47;4.50;99.90
20432;DHT22;10375;49.136;10.366;2023-02-01T18:54:18;4.50;99.90
20432;DHT22;10375;49.136;10.366;2023-02-01T18:56:45;4.50;99.90